createdAt,value
2023-01-09T00:03:01.068Z,66.67593716856663
2023-01-09T00:07:57.354Z,66.62245086843735
2023-01-09T00:12:53.641Z,67.4015578768117
2023-01-09T00:17:49.868Z,67.32416765873373
2023-01-09T00:22:45.142Z,66.96549244282104
2023-01-09T00:27:41.344Z,67.11216566867073
2023-01-09T00:32:37.649Z,66.69564231913571
2023-01-09T00:37:33.925Z,66.63468829172001
2023-01-09T00:42:31.146Z,66.37538301213944
2023-01-09T00:47:31.448Z,66.51711671411883
2023-01-09T00:52:27.691Z,67.74595174156372
2023-01-09T00:57:23.935Z,66.53164573501472
2023-01-09T01:02:20.245Z,67.19680820114628
2023-01-09T01:07:16.426Z,68.39608839251709
2023-01-09T01:12:12.734Z,67.58951835023775
2023-01-09T01:17:08.929Z,67.67468528540817
2023-01-09T01:22:05.242Z,68.78977142550289
2023-01-09T01:27:01.489Z,68.87057157696373
2023-01-09T01:31:57.745Z,69.53758335972164
2023-01-09T01:36:54.006Z,69.2445252037164
2023-01-09T01:41:50.228Z,69.10155468961685
2023-01-09T01:46:47.512Z,68.56154252756536
2023-01-09T01:51:45.729Z,69.59002451223732
2023-01-09T01:56:48.011Z,69.80782456343293
2023-01-09T02:01:45.390Z,69.93135033073982
2023-01-09T02:06:43.545Z,68.4790054316825
2023-01-09T02:11:43.780Z,68.89544134931849
2023-01-09T02:16:51.030Z,68.34812734246364
2023-01-09T02:21:59.248Z,69.63920576248884
2023-01-09T02:27:04.442Z,69.40380141119864
2023-01-09T02:32:06.728Z,70.16994341599562
2023-01-09T02:37:10.970Z,69.71885689220497
2023-01-09T02:42:13.197Z,69.56750015079723
2023-01-09T02:47:14.464Z,70.73232301323922
2023-01-09T02:52:23.685Z,70.76930463204124
2023-01-09T02:57:32.902Z,72.63357660296164
2023-01-09T03:02:42.264Z,71.82437386739745
2023-01-09T03:07:47.357Z,71.64748464170738
2023-01-09T03:12:48.665Z,71.46302936418815
2023-01-09T03:17:48.846Z,71.73532223264243
2023-01-09T03:22:47.141Z,72.25355543408196
2023-01-09T03:27:43.379Z,72.24810801429899
2023-01-09T03:32:39.631Z,72.98888915093355
2023-01-09T03:37:35.904Z,73.17007214507241
2023-01-09T03:42:32.160Z,73.13732457979901
2023-01-09T03:47:28.402Z,72.50600527056768
2023-01-09T03:52:24.687Z,72.32308917497949
2023-01-09T03:57:20.919Z,72.33899602251644
2023-01-09T04:02:17.335Z,71.72511695918799
2023-01-09T04:07:13.478Z,71.09031660025153
2023-01-09T04:12:09.696Z,71.56209259123983
2023-01-09T04:17:06.003Z,71.51629010797495
2023-01-09T04:22:02.244Z,71.2554793122019
2023-01-09T04:26:58.504Z,71.07466354992141
2023-01-09T04:31:54.786Z,70.128566219555
2023-01-09T04:36:51.056Z,70.95304429403538
2023-01-09T04:41:47.287Z,70.4044430247022
2023-01-09T04:46:43.523Z,71.31724961170613
2023-01-09T04:51:39.795Z,71.76812970607712
2023-01-09T04:56:36.090Z,72.17132795089051
2023-01-09T05:01:32.437Z,71.78825306455327
2023-01-09T05:06:28.551Z,71.8040420254885
2023-01-09T05:11:24.851Z,71.56475733117736
2023-01-09T05:16:21.170Z,71.91369238428939
2023-01-09T05:21:17.356Z,71.92174151228349
2023-01-09T05:26:13.595Z,71.61968028080872
2023-01-09T05:31:09.887Z,72.38890548196588
2023-01-09T05:36:06.108Z,71.23563044270975
2023-01-09T05:41:02.362Z,72.00823778223211
2023-01-09T05:45:58.645Z,71.37974528699607
2023-01-09T05:50:54.898Z,70.54787954215524
2023-01-09T05:55:51.160Z,71.93515346116169
2023-01-09T06:00:47.421Z,71.31584187863376
2023-01-09T06:05:43.670Z,71.01552963737919
2023-01-09T06:10:41.962Z,71.26554621391622
2023-01-09T06:15:38.284Z,72.06607992593574
2023-01-09T06:20:34.484Z,71.23305944463398
2023-01-09T06:25:30.704Z,71.32390564018857
2023-01-09T06:30:26.964Z,71.46811758555333
2023-01-09T06:35:23.285Z,70.99061887703128
2023-01-09T06:40:19.536Z,70.33740789068088
2023-01-09T06:45:15.780Z,70.69503510006352
2023-01-09T06:50:12.038Z,70.315108465707
2023-01-09T06:55:08.281Z,69.63192708965613
2023-01-09T07:00:04.505Z,70.46727785920565
2023-01-09T07:05:00.794Z,70.49428016286372
2023-01-09T07:09:57.030Z,70.07681634272265
2023-01-09T07:14:53.301Z,70.78101066289344
2023-01-09T07:19:49.555Z,70.76209819873594
2023-01-09T07:24:45.835Z,71.16752026056871
2023-01-09T07:29:42.056Z,69.86696373011996
2023-01-09T07:34:38.379Z,69.34031986060937
2023-01-09T07:39:34.586Z,69.34632535408771
2023-01-09T07:44:30.908Z,68.62768329726981
2023-01-09T07:49:27.142Z,68.89307747086585
2023-01-09T07:54:23.399Z,68.34777626988586
2023-01-09T07:59:19.678Z,68.39521416022794
2023-01-09T08:04:16.108Z,67.72010941956171
2023-01-09T08:09:12.190Z,68.13224560595927
2023-01-09T08:14:09.417Z,68.47086243990213
2023-01-09T08:19:05.661Z,68.22629109424213
2023-01-09T08:24:01.934Z,68.04390143507482
2023-01-09T08:28:58.194Z,66.97549642677434
2023-01-09T08:33:54.786Z,66.75847696356146
2023-01-09T08:38:50.742Z,66.3546221683046
2023-01-09T08:43:47.010Z,66.61661208777575
2023-01-09T08:48:43.243Z,68.66431392644242
2023-01-09T08:53:40.035Z,69.43202395070749
2023-01-09T08:58:35.803Z,69.63547262365248
2023-01-09T09:03:32.016Z,69.90139017206859
2023-01-09T09:08:30.312Z,71.40784997684335
2023-01-09T09:13:27.529Z,73.34245841928467
2023-01-09T09:18:23.786Z,73.33895542128852
2023-01-09T09:23:20.036Z,73.44095133548682
2023-01-09T09:28:20.355Z,74.33070865355909
2023-01-09T09:33:16.516Z,75.74008121554637
2023-01-09T09:38:13.010Z,75.03628045140003
2023-01-09T09:43:26.028Z,75.69710198935556
2023-01-09T09:48:32.313Z,75.56023006495424
2023-01-09T09:53:36.546Z,76.00837093993195
2023-01-09T09:58:36.789Z,75.75311174346608
2023-01-09T10:03:37.120Z,76.88622520126873
2023-01-09T10:08:45.259Z,77.24126555174914
2023-01-09T10:13:44.547Z,77.09603904061916
2023-01-09T10:18:52.706Z,77.87041810562576
2023-01-09T10:24:03.724Z,77.08142168240171
2023-01-09T10:29:15.193Z,77.33826814563108
2023-01-09T10:34:29.369Z,77.78490852318696
2023-01-09T10:39:34.639Z,77.11039552767247
2023-01-09T10:44:35.131Z,76.88109859348135
2023-01-09T10:49:32.069Z,77.85050367273793
2023-01-09T10:54:28.417Z,77.08886277555693
2023-01-09T10:59:25.645Z,77.87556357314064
2023-01-09T11:04:25.969Z,77.91525204872116
2023-01-09T11:09:22.170Z,77.61247026848986
2023-01-09T11:14:24.366Z,77.91278019593187
2023-01-09T11:19:22.702Z,77.13715914100787
2023-01-09T11:24:25.492Z,76.83853047136222
2023-01-09T11:29:41.140Z,76.84256100303995
2023-01-09T11:34:38.369Z,76.44827910741509
2023-01-09T11:39:39.622Z,76.30937847054844
2023-01-09T11:44:36.081Z,76.0036654236139
2023-01-09T11:49:32.145Z,75.34251485286114
2023-01-09T11:54:42.389Z,75.75698790870729
2023-01-09T11:59:45.127Z,75.1332756543105
2023-01-09T12:04:56.087Z,74.65270443729165
2023-01-09T12:09:56.064Z,75.05589637719068
2023-01-09T12:15:09.888Z,74.20176647232967
2023-01-09T12:20:25.630Z,75.81520367325214
2023-01-09T12:25:32.718Z,74.97125031600059
2023-01-09T12:30:40.967Z,75.68349204590406
2023-01-09T12:35:52.195Z,74.83597774456709
2023-01-09T12:41:04.946Z,75.2986043071361
2023-01-09T12:46:14.728Z,75.70568190416617
2023-01-09T12:51:24.895Z,76.64474756852158
2023-01-09T12:56:27.354Z,76.69533232876248
2023-01-09T13:01:28.409Z,76.82470508537509
2023-01-09T13:06:29.625Z,77.18260094207609
2023-01-09T13:11:42.625Z,76.75227235754
2023-01-09T13:16:48.136Z,75.74671243361406
2023-01-09T13:21:46.279Z,76.56410068115686
2023-01-09T13:26:47.784Z,76.09698517740198
2023-01-09T13:32:07.886Z,74.88475835393982
2023-01-09T13:37:05.130Z,75.10476019447322
2023-01-09T13:42:03.282Z,75.44332356834995
2023-01-09T13:47:03.716Z,75.68191322978775
2023-01-09T13:52:05.786Z,76.11600694351753
2023-01-09T13:57:20.293Z,76.20522988373999
2023-01-09T14:02:23.069Z,76.28262762338831
2023-01-09T14:07:30.802Z,76.51247405015346
2023-01-09T14:12:33.677Z,77.94085572732169
2023-01-09T14:17:32.155Z,78.3667248323401
2023-01-09T14:22:30.229Z,79.46169384890135
2023-01-09T14:27:37.422Z,79.23713520294916
2023-01-09T14:32:42.748Z,79.77529766389945
2023-01-09T14:37:52.902Z,79.2726698636911
2023-01-09T14:42:59.139Z,79.38769658100924
2023-01-09T14:48:11.383Z,79.04958957580352
2023-01-09T14:53:12.358Z,79.16383935107974
2023-01-09T14:58:10.006Z,79.79341215377639
2023-01-09T15:03:12.128Z,79.79040326812789
2023-01-09T15:08:18.773Z,80.29791112235415
2023-01-09T15:13:19.247Z,80.16170433288399
2023-01-09T15:18:20.824Z,80.05995865051261
2023-01-09T15:23:22.020Z,80.26064833498712
2023-01-09T16:22:12.296Z,76.28902766883486
2023-01-09T16:27:19.420Z,77.21792093533175
2023-01-09T16:32:17.765Z,76.02649306421057
2023-01-09T16:37:14.086Z,76.65642993348115
2023-01-09T16:42:17.060Z,76.09008665542599
2023-01-09T16:47:28.571Z,76.24815340932177
2023-01-09T16:52:30.644Z,75.9175056423643
2023-01-09T16:57:34.540Z,76.33936129146039
2023-01-09T17:02:31.297Z,75.48063718473647
2023-01-09T17:07:27.417Z,75.11321669262387
2023-01-09T17:12:28.259Z,76.01410976348281
2023-01-09T17:17:30.408Z,75.44306230655262
2023-01-09T17:22:30.629Z,75.68636888014856
2023-01-09T17:27:27.501Z,75.19344059018984
2023-01-09T17:32:23.756Z,74.23477977901156
2023-01-09T17:37:26.787Z,74.63603529931129
2023-01-09T17:42:24.225Z,75.12702820773023
2023-01-09T17:47:20.470Z,75.05214582313572
2023-01-09T17:52:17.799Z,74.999706551933
2023-01-09T17:57:24.359Z,76.05391737573498
2023-01-09T18:02:28.665Z,76.78615305228094
2023-01-09T18:07:31.503Z,77.23949855876516
2023-01-09T18:12:27.711Z,77.53600151108613
2023-01-09T18:17:23.960Z,78.34947711005495
2023-01-09T18:22:19.846Z,77.89657530676868
2023-01-09T18:27:20.464Z,78.25036254528388
2023-01-09T18:32:16.773Z,77.82838718285709
2023-01-09T18:37:13.016Z,78.80768287587205
2023-01-09T18:42:17.708Z,78.43736982148555
2023-01-09T18:47:15.470Z,78.82662905994616
2023-01-09T18:52:16.655Z,79.36291835736064
2023-01-09T18:57:17.971Z,79.84430773716372
2023-01-09T19:02:19.273Z,79.40323224223705
2023-01-09T19:07:15.558Z,79.38907063019559
2023-01-09T19:12:15.819Z,79.43122148700459
2023-01-09T19:17:17.976Z,79.24118826609745
2023-01-09T19:22:13.277Z,79.30156886046738
2023-01-09T19:27:10.523Z,78.79586482483522
2023-01-09T19:32:06.907Z,78.42442544331455
2023-01-09T19:37:02.096Z,80.01571183329385
2023-01-09T19:42:07.348Z,79.70180749104819
2023-01-09T19:47:08.018Z,80.05060935156098
2023-01-09T19:52:04.793Z,79.84767414125099
2023-01-09T19:57:09.438Z,79.91986999211663
2023-01-09T20:02:14.444Z,80.292182302706
2023-01-09T20:07:16.517Z,81.41851259640282
2023-01-09T20:12:12.800Z,80.7207748236856
2023-01-09T20:17:13.960Z,81.4377054359334
2023-01-09T20:22:14.208Z,82.18734129239651
2023-01-09T20:27:10.843Z,82.66771240073264
2023-01-09T20:32:07.804Z,82.66672389919535
2023-01-09T20:37:04.139Z,83.01115731892835
2023-01-09T20:42:07.299Z,83.39344807587344
2023-01-09T20:47:13.906Z,83.00222822191108
2023-01-09T20:52:15.031Z,82.69953102837204
2023-01-09T20:57:15.102Z,82.01627375360759
2023-01-09T21:02:15.283Z,82.08787249891229
2023-01-09T21:07:16.774Z,80.85047131239058
2023-01-09T21:12:13.512Z,80.94735525213113
2023-01-09T21:17:14.134Z,80.81747024312043
2023-01-09T21:22:10.281Z,81.08684537031937
2023-01-09T21:27:24.129Z,80.72365102563383
2023-01-09T21:32:25.184Z,80.78370302227437
2023-01-09T21:37:30.964Z,81.12538100836174
2023-01-09T21:42:28.254Z,79.96472371121995
2023-01-09T21:47:28.880Z,80.48607794066847
2023-01-09T21:52:26.405Z,80.39961788286378
2023-01-09T21:57:26.017Z,80.49200550279295
2023-01-09T22:02:26.653Z,79.81568123364599
2023-01-09T22:07:26.727Z,81.30185170005734
2023-01-09T22:12:31.699Z,80.93676646585637
2023-01-09T22:17:28.007Z,81.6362324888655
2023-01-09T22:22:24.230Z,81.56679521416336
2023-01-09T22:27:24.958Z,81.56033459978593
2023-01-09T22:32:20.744Z,81.3569224661285
2023-01-09T22:37:17.081Z,81.92308779502122
2023-01-09T22:42:13.250Z,80.16149891746518
2023-01-09T22:47:10.082Z,79.93522529413002
2023-01-09T22:52:06.822Z,79.42604040538794
2023-01-09T22:57:03.065Z,78.80744939594187
2023-01-09T23:01:59.422Z,79.09537963912294
2023-01-09T23:06:55.916Z,78.40533672767637
2023-01-09T23:11:51.843Z,80.82542281728573
2023-01-09T23:16:48.114Z,79.80761562073643
2023-01-09T23:21:45.332Z,78.40510350856113
2023-01-09T23:26:54.401Z,79.43983277005651
2023-01-09T23:31:54.956Z,78.46669290789889
2023-01-09T23:36:51.122Z,78.89526835320049
2023-01-09T23:41:47.310Z,78.28959971934619
2023-01-09T23:46:43.590Z,78.76696153123123
2023-01-09T23:51:39.848Z,77.7336881046924
2023-01-09T23:56:37.122Z,77.88871186242939
